Time;durP1;ratioP1;P1;durP2;ratioP2;P2;SDS_P1;SDS_P2;PMS_P1;PMS_P2;Temp;Humidity;BMP_temperature;BMP_pressure;BME280_temperature;BME280_humidity;BME280_pressure;Samples;Min_cycle;Max_cycle;Signal;HPM_P1;HPM_P2
2021/04/01 02:07:00;;;;;;;54.30;28.00;;;;;;;6.62;77.63;99158.69;4245514;79;73169;-92
2021/04/01 02:13:04;;;;;;;56.73;28.67;;;;;;;6.59;77.16;99152.58;4294907;80;21205;-91
2021/04/01 02:19:05;;;;;;;57.38;27.90;;;;;;;6.53;77.56;99146.58;4282000;81;21730;-91
2021/04/01 02:25:10;;;;;;;56.33;27.65;;;;;;;6.47;77.58;99147.95;4299075;81;21173;-91
2021/04/01 02:31:19;;;;;;;47.27;23.75;;;;;;;6.37;77.61;99137.58;4287423;81;21889;-93
2021/04/01 02:48:14;;;;;;;51.25;27.05;;;;;;;6.25;78.92;99127.50;4466965;74;22342;-91
2021/04/01 02:54:15;;;;;;;47.70;25.32;;;;;;;6.16;78.23;99128.21;4278199;80;21193;-94
2021/04/01 03:00:22;;;;;;;61.80;27.52;;;;;;;6.12;78.39;99119.73;4192672;83;21235;-92
2021/04/01 03:06:23;;;;;;;58.83;28.60;;;;;;;6.06;78.47;99125.17;4148169;83;21809;-92
2021/04/01 03:12:24;;;;;;;56.70;27.20;;;;;;;5.94;78.76;99113.73;4224870;82;21195;-92
2021/04/01 03:18:26;;;;;;;59.08;26.82;;;;;;;5.85;78.57;99111.72;4293079;81;21228;-92
2021/04/01 03:24:28;;;;;;;59.35;29.57;;;;;;;5.78;78.94;99105.25;4288144;81;21222;-91
2021/04/01 03:30:31;;;;;;;54.67;28.52;;;;;;;5.76;79.13;99104.78;4240271;80;78354;-92
2021/04/01 03:36:34;;;;;;;50.70;25.48;;;;;;;5.64;79.05;99105.56;3985673;87;21242;-91
2021/04/01 03:42:38;;;;;;;48.87;25.80;;;;;;;5.66;79.42;99101.95;3990445;86;21747;-93
2021/04/01 03:48:41;;;;;;;62.80;28.47;;;;;;;5.61;79.11;99096.74;4038808;85;54954;-92
2021/04/01 03:54:47;;;;;;;52.27;27.05;;;;;;;5.55;79.60;99085.89;4085003;85;21217;-93
2021/04/01 07:47:59;;;;;;;38.60;17.73;;;;;;;16.97;71.85;98948.87;4243262;82;21691;-88
2021/04/01 07:54:02;;;;;;;30.92;17.57;;;;;;;17.55;71.33;98950.31;4253553;81;21202;-88
2021/04/01 08:06:24;;;;;;;25.40;15.03;;;;;;;18.81;69.47;98930.38;4221305;81;22117;-88
2021/04/01 08:12:30;;;;;;;22.22;12.10;;;;;;;19.30;68.39;98924.45;4251226;81;21765;-88
2021/04/01 08:18:38;;;;;;;20.32;12.10;;;;;;;19.74;66.17;98927.08;4215370;82;75747;-88
2021/04/01 08:37:12;;;;;;;16.40;11.73;;;;;;;21.06;62.91;98908.31;4418130;78;21189;-87
2021/04/01 08:44:06;;;;;;;18.12;11.12;;;;;;;21.68;61.87;98898.42;4272721;81;21161;-88
2021/04/01 08:50:27;;;;;;;17.60;10.05;;;;;;;22.11;59.56;98885.77;4266344;81;21357;-88
2021/04/01 08:56:42;;;;;;;18.10;10.78;;;;;;;22.35;58.70;98882.69;4262297;81;21164;-88
2021/04/01 09:02:54;;;;;;;22.87;9.90;;;;;;;22.88;56.62;98873.80;4259808;81;21313;-87
2021/04/01 09:09:10;;;;;;;21.93;10.45;;;;;;;23.31;55.74;98865.87;4257381;81;21169;-87
2021/04/01 09:21:45;;;;;;;18.75;11.78;;;;;;;24.82;50.10;98856.23;4439526;78;23047;-88
2021/04/01 09:27:52;;;;;;;16.93;10.88;;;;;;;25.39;51.13;98849.98;4393282;79;21672;-89
2021/04/01 09:33:56;;;;;;;17.15;11.48;;;;;;;26.29;49.18;98841.43;4365890;80;21226;-88
2021/04/01 09:40:10;;;;;;;23.62;11.08;;;;;;;26.74;47.16;98831.88;4367396;80;21223;-87
2021/04/01 09:46:13;;;;;;;19.10;11.50;;;;;;;27.10;47.53;98822.17;4387916;79;21225;-87
2021/04/01 09:52:15;;;;;;;17.82;10.95;;;;;;;27.62;44.64;98823.89;4394164;79;21181;-87
2021/04/01 09:58:39;;;;;;;19.37;10.03;;;;;;;27.44;43.45;98817.14;4274495;79;106959;-89
2021/04/01 10:04:44;;;;;;;14.53;9.05;;;;;;;27.55;42.63;98812.44;4226095;81;21234;-89
2021/04/01 10:10:49;;;;;;;12.77;7.57;;;;;;;28.00;41.75;98802.48;4244536;83;21258;-88
2021/04/01 10:17:11;;;;;;;13.07;8.03;;;;;;;28.47;40.05;98792.64;4230977;82;21247;-88
2021/04/01 10:23:14;;;;;;;17.10;7.80;;;;;;;28.58;36.65;98796.98;4180205;82;22379;-87
2021/04/01 10:29:21;;;;;;;12.60;8.58;;;;;;;28.46;36.27;98782.63;4127908;84;21169;-87
2021/04/01 10:35:26;;;;;;;16.07;8.03;;;;;;;28.34;35.12;98770.53;4113592;84;21629;-87
2021/04/01 10:41:30;;;;;;;14.07;8.10;;;;;;;28.44;31.28;98759.86;4063931;85;22298;-87
2021/04/01 10:47:55;;;;;;;14.87;9.08;;;;;;;28.22;32.19;98756.88;4082276;85;21216;-87
2021/04/01 10:53:57;;;;;;;15.17;9.00;;;;;;;28.19;31.98;98739.58;4103277;85;21622;-87
2021/04/01 11:00:03;;;;;;;14.38;7.87;;;;;;;28.74;30.01;98732.92;4128893;85;21240;-87
2021/04/01 11:06:06;;;;;;;13.95;9.35;;;;;;;28.18;30.77;98726.77;4031153;86;74581;-89
2021/04/01 11:18:18;;;;;;;17.90;9.03;;;;;;;27.69;29.09;98711.62;4036277;86;21353;-87
2021/04/01 11:24:33;;;;;;;16.35;8.98;;;;;;;27.87;29.79;98713.45;4022044;86;21258;-88
2021/04/01 11:30:51;;;;;;;15.38;9.43;;;;;;;28.42;28.71;98707.50;4023250;86;21195;-87
2021/04/01 11:36:53;;;;;;;15.28;8.48;;;;;;;28.66;25.42;98696.02;4030114;86;21186;-89
2021/04/01 11:43:01;;;;;;;15.58;8.48;;;;;;;28.65;27.24;98688.86;3986682;86;22061;-89
2021/04/01 11:49:03;;;;;;;11.80;7.60;;;;;;;28.46;26.46;98685.50;4033060;85;21277;-88
2021/04/01 11:55:10;;;;;;;14.65;8.58;;;;;;;28.62;26.74;98671.56;4019141;85;21794;-87
2021/04/01 12:01:29;;;;;;;14.60;8.38;;;;;;;28.62;26.74;98665.93;4020531;86;21257;-88
2021/04/01 12:07:31;;;;;;;14.23;9.35;;;;;;;27.89;26.73;98665.16;4023122;86;21231;-89
2021/04/01 12:13:33;;;;;;;13.30;7.40;;;;;;;26.79;26.68;98663.33;4040848;85;21278;-87
2021/04/01 12:19:36;;;;;;;17.25;8.48;;;;;;;25.92;28.16;98658.09;4009580;86;21217;-87
2021/04/01 12:25:38;;;;;;;17.32;8.28;;;;;;;25.80;28.59;98645.16;3982823;87;21251;-88
2021/04/01 12:31:43;;;;;;;18.27;9.05;;;;;;;25.76;29.07;98643.16;3975783;87;21210;-87
2021/04/01 12:37:58;;;;;;;18.57;9.13;;;;;;;25.61;29.23;98640.23;3988505;87;21343;-88
2021/04/01 12:44:00;;;;;;;13.20;8.23;;;;;;;25.36;29.53;98630.39;3940417;87;21677;-87
2021/04/01 12:50:02;;;;;;;15.75;8.45;;;;;;;25.30;30.20;98628.09;3961635;87;21779;-88
2021/04/01 12:56:14;;;;;;;20.70;9.05;;;;;;;25.47;30.61;98617.98;4023443;86;21254;-87
2021/04/01 13:02:16;;;;;;;17.05;8.45;;;;;;;25.32;30.15;98613.60;4009877;86;21195;-88
2021/04/01 13:14:21;;;;;;;17.40;8.45;;;;;;;24.75;30.16;98603.86;4017339;86;21400;-88
2021/04/01 13:20:23;;;;;;;16.02;7.90;;;;;;;24.31;29.44;98604.48;4027052;86;21250;-88
2021/04/01 13:26:24;;;;;;;13.98;8.30;;;;;;;23.87;29.05;98602.05;4012673;86;21253;-88
2021/04/01 13:32:41;;;;;;;16.75;8.80;;;;;;;23.38;29.26;98603.65;4032119;86;22225;-91
2021/04/01 13:38:41;;;;;;;16.60;8.73;;;;;;;23.13;29.51;98600.58;4022636;86;21235;-88
2021/04/01 13:44:51;;;;;;;19.90;11.00;;;;;;;22.86;29.89;98597.20;4025476;86;22148;-87
2021/04/01 13:57:30;;;;;;;22.95;11.53;;;;;;;22.67;29.92;98590.08;4524122;77;22928;-88
2021/04/01 14:10:43;;;;;;;25.45;12.60;;;;;;;22.41;30.55;98576.88;4486246;77;22737;-89
2021/04/01 14:16:45;;;;;;;21.15;11.65;;;;;;;22.23;30.63;98571.27;4424584;78;21122;-88
2021/04/01 14:22:49;;;;;;;19.82;11.83;;;;;;;22.17;30.87;98561.97;4270739;81;21185;-87
2021/04/01 14:28:51;;;;;;;22.67;9.90;;;;;;;22.04;30.67;98561.31;4259722;82;21351;-87
2021/04/01 14:35:03;;;;;;;17.98;9.28;;;;;;;21.91;30.27;98560.69;4267679;81;21185;-88
2021/04/01 14:47:07;;;;;;;20.92;10.48;;;;;;;21.90;30.07;98552.15;4262487;82;21181;-88
2021/04/01 14:53:16;;;;;;;16.73;9.48;;;;;;;21.97;29.98;98546.30;4258523;81;21680;-89
2021/04/01 16:41:26;;;;;;;17.07;9.85;;;;;;;15.57;50.60;98587.98;4107674;82;72167;-93
2021/04/01 16:47:35;;;;;;;24.18;10.88;;;;;;;15.65;49.32;98593.58;4025234;83;1233684;-94
2021/04/01 16:54:03;;;;;;;18.10;9.30;;;;;;;15.84;47.49;98570.02;3867230;87;240960;-95
2021/04/01 17:00:11;;;;;;;15.08;8.75;;;;;;;16.02;46.49;98576.62;3872804;88;21242;-95
2021/04/01 17:39:57;;;;;;;31.62;16.12;;;;;;;15.85;46.86;98622.63;3754181;86;71744;-88
2021/04/01 17:45:59;;;;;;;32.28;16.65;;;;;;;15.76;47.29;98625.14;3962999;86;21233;-88
2021/04/01 17:52:01;;;;;;;33.20;16.12;;;;;;;15.64;48.11;98629.24;3948199;86;21818;-86
2021/04/01 17:58:03;;;;;;;36.48;17.95;;;;;;;15.42;50.10;98629.40;3938527;86;21248;-87
2021/04/01 18:22:54;;;;;;;32.50;16.95;;;;;;;14.69;52.07;98615.91;3885399;89;21313;-87
2021/04/01 18:28:42;;;;;;;34.48;18.07;;;;;;;14.44;55.54;98603.61;3798947;89;10000465;-87
2021/04/01 18:40:57;;;;;;;29.57;14.80;;;;;;;14.08;57.57;98607.25;3872761;89;21878;-87
2021/04/01 18:47:10;;;;;;;34.03;15.20;;;;;;;13.97;56.16;98615.61;3894639;89;21201;-87
2021/04/01 18:53:19;;;;;;;29.75;14.23;;;;;;;13.90;55.77;98614.89;3886280;89;21343;-88
2021/04/01 18:59:36;;;;;;;30.45;14.83;;;;;;;13.93;56.60;98630.59;3899746;89;21391;-88
2021/04/01 19:05:48;;;;;;;32.40;16.10;;;;;;;13.98;57.14;98632.92;3900018;89;21356;-90
2021/04/01 19:24:31;;;;;;;54.48;29.12;;;;;;;13.82;57.90;98662.33;3912763;89;21284;-89
2021/04/01 20:12:38;;;;;;;37.95;17.60;;;;;;;13.40;58.09;98723.66;4330526;76;21228;-87
2021/04/01 20:18:40;;;;;;;38.78;18.42;;;;;;;13.39;56.76;98727.61;4252892;81;21184;-87
2021/04/01 20:24:42;;;;;;;37.75;17.60;;;;;;;13.39;56.33;98731.73;4218528;80;21338;-88
2021/04/01 20:30:47;;;;;;;40.33;15.70;;;;;;;13.39;55.46;98731.73;4249445;81;22363;-87
2021/04/01 20:36:49;;;;;;;30.50;13.83;;;;;;;13.38;55.24;98726.81;4283113;81;21223;-86
2021/04/01 20:42:50;;;;;;;28.15;14.07;;;;;;;13.33;56.04;98729.97;4291983;80;21322;-87
2021/04/01 20:48:52;;;;;;;28.05;15.25;;;;;;;13.26;56.55;98731.97;4163757;83;21258;-86
2021/04/01 20:54:54;;;;;;;41.75;19.87;;;;;;;13.20;56.46;98744.56;4258728;81;21193;-87
2021/04/01 21:00:59;;;;;;;30.85;14.45;;;;;;;13.15;56.49;98750.45;4258904;81;21707;-87
2021/04/01 21:07:01;;;;;;;27.30;13.88;;;;;;;13.05;56.07;98756.75;4215659;82;21255;-87
2021/04/01 21:20:08;;;;;;;31.90;15.35;;;;;;;12.74;58.33;98744.64;4058391;84;21347;-87
